createdAt,value
2018-02-19T00:00:46.539Z,101968.76
2018-02-19T00:03:14.878Z,101959.85
2018-02-19T00:05:43.191Z,101955.37
2018-02-19T00:08:11.524Z,101960.00
2018-02-19T00:10:39.920Z,101953.97
2018-02-19T00:13:09.036Z,101955.89
2018-02-19T00:15:37.342Z,101960.70
2018-02-19T00:18:05.699Z,101959.93
2018-02-19T00:20:34.094Z,101951.77
2018-02-19T00:23:02.402Z,101948.11
2018-02-19T00:25:31.528Z,101947.02
2018-02-19T00:27:59.896Z,101944.47
2018-02-19T00:30:28.221Z,101943.11
2018-02-19T00:32:56.541Z,101935.02
2018-02-19T00:35:24.882Z,101937.76
2018-02-19T00:37:53.218Z,101942.63
2018-02-19T00:40:21.546Z,101926.98
2018-02-19T00:42:49.881Z,101923.02
2018-02-19T00:45:18.237Z,101925.38
2018-02-19T00:47:46.953Z,101927.09
2018-02-19T00:50:15.293Z,101932.10
2018-02-19T00:52:43.613Z,101926.92
2018-02-19T00:55:11.988Z,101921.92
2018-02-19T00:57:40.282Z,101914.66
2018-02-19T01:00:08.806Z,101912.60
2018-02-19T01:02:37.145Z,101913.19
2018-02-19T01:05:05.475Z,101912.87
2018-02-19T01:07:33.851Z,101914.23
2018-02-19T01:10:02.156Z,101920.73
2018-02-19T01:12:30.503Z,101919.23
2018-02-19T01:14:58.867Z,101911.95
2018-02-19T01:17:27.262Z,101917.71
2018-02-19T01:19:55.569Z,101908.81
2018-02-19T01:22:23.906Z,101904.70
2018-02-19T01:24:52.246Z,101903.82
2018-02-19T01:27:21.351Z,101893.84
2018-02-19T01:29:50.484Z,101893.63
2018-02-19T01:32:18.838Z,101901.69
2018-02-19T01:34:47.159Z,101900.66
2018-02-19T01:37:15.487Z,101884.38
2018-02-19T01:39:44.605Z,101895.00
2018-02-19T01:42:12.929Z,101890.05
2018-02-19T01:44:41.304Z,101890.91
2018-02-19T01:47:09.635Z,101882.89
2018-02-19T01:49:37.979Z,101876.19
2018-02-19T01:52:07.115Z,101877.92
2018-02-19T01:54:35.454Z,101877.09
2018-02-19T01:57:04.566Z,101864.97
2018-02-19T01:59:33.650Z,101860.06
2018-02-19T02:02:02.765Z,101858.73
2018-02-19T02:04:31.131Z,101857.22
2018-02-19T02:07:00.623Z,101851.94
2018-02-19T02:09:29.701Z,101851.91
2018-02-19T02:11:58.058Z,101849.50
2018-02-19T02:14:26.372Z,101841.70
2018-02-19T02:16:55.492Z,101844.88
2018-02-19T02:19:23.841Z,101842.16
2018-02-19T02:21:52.968Z,101844.19
2018-02-19T02:24:21.342Z,101845.20
2018-02-19T02:26:49.697Z,101841.60
2018-02-19T02:29:18.047Z,101841.34
2018-02-19T02:31:46.358Z,101838.70
2018-02-19T02:34:15.494Z,101838.62
2018-02-19T02:36:43.840Z,101832.52
2018-02-19T02:39:12.574Z,101828.39
2018-02-19T02:41:40.889Z,101828.44
2018-02-19T02:44:10.025Z,101827.81
2018-02-19T02:46:39.899Z,101827.88
2018-02-19T02:49:08.996Z,101824.34
2018-02-19T02:51:38.116Z,101824.72
2018-02-19T02:54:06.441Z,101817.17
2018-02-19T02:56:34.808Z,101816.94
2018-02-19T02:59:03.128Z,101814.12
2018-02-19T03:01:32.231Z,101812.16
2018-02-19T03:04:00.591Z,101807.63
2018-02-19T03:06:29.795Z,101810.38
2018-02-19T03:08:59.145Z,101808.40
2018-02-19T03:11:27.483Z,101804.05
2018-02-19T03:13:55.816Z,101801.83
2018-02-19T03:16:24.894Z,101802.55
2018-02-19T03:18:53.259Z,101796.28
2018-02-19T03:21:21.650Z,101803.08
2018-02-19T03:23:50.031Z,101796.70
2018-02-19T03:26:18.397Z,101799.02
2018-02-19T03:28:46.732Z,101798.31
2018-02-19T03:31:15.872Z,101797.52
2018-02-19T03:33:44.246Z,101794.64
2018-02-19T03:36:12.586Z,101790.94
2018-02-19T03:38:41.679Z,101797.48
2018-02-19T03:41:10.811Z,101794.38
2018-02-19T03:43:39.125Z,101791.06
2018-02-19T03:46:07.479Z,101784.22
2018-02-19T03:48:35.790Z,101784.97
2018-02-19T03:51:04.134Z,101784.05
2018-02-19T03:53:32.486Z,101781.02
2018-02-19T03:56:00.805Z,101782.17
2018-02-19T03:58:29.172Z,101775.04
2018-02-19T04:00:57.902Z,101780.06
2018-02-19T04:03:27.003Z,101766.77
2018-02-19T04:05:55.347Z,101768.06
2018-02-19T04:08:23.668Z,101768.48
2018-02-19T04:10:52.033Z,101767.27
2018-02-19T04:13:21.164Z,101763.11
2018-02-19T04:15:49.607Z,101759.27
2018-02-19T04:18:20.278Z,101761.94
2018-02-19T04:20:48.759Z,101756.13
2018-02-19T04:23:17.110Z,101755.24
2018-02-19T04:25:45.432Z,101748.28
2018-02-19T04:28:13.833Z,101747.91
2018-02-19T04:30:42.143Z,101753.02
2018-02-19T04:33:10.494Z,101742.09
2018-02-19T04:35:38.796Z,101743.48
2018-02-19T04:38:07.105Z,101739.23
2018-02-19T04:40:35.449Z,101734.08
2018-02-19T04:43:06.394Z,101737.64
2018-02-19T04:45:36.549Z,101736.78
2018-02-19T04:48:04.860Z,101735.23
2018-02-19T04:50:33.189Z,101729.66
2018-02-19T04:53:01.529Z,101729.86
2018-02-19T04:55:30.645Z,101731.45
2018-02-19T04:57:59.017Z,101728.41
2018-02-19T05:00:27.359Z,101684.23
2018-02-19T05:02:55.668Z,101730.50
2018-02-19T05:05:24.098Z,101729.89
2018-02-19T05:07:52.523Z,101735.94
2018-02-19T05:10:22.062Z,101736.52
2018-02-19T05:12:50.413Z,101730.77
2018-02-19T05:15:18.737Z,101730.15
2018-02-19T05:17:47.108Z,101727.89
2018-02-19T05:20:15.427Z,101732.20
2018-02-19T05:22:44.565Z,101734.02
2018-02-19T05:25:12.893Z,101734.04
2018-02-19T05:27:42.009Z,101728.70
2018-02-19T05:30:11.133Z,101728.14
2018-02-19T05:32:39.462Z,101725.14
2018-02-19T05:35:08.551Z,101729.32
2018-02-19T05:37:37.027Z,101724.16
2018-02-19T05:40:05.405Z,101731.85
2018-02-19T05:42:33.715Z,101728.29
2018-02-19T05:45:03.218Z,101724.53
2018-02-19T05:47:31.547Z,101722.07
2018-02-19T05:49:59.901Z,101722.34
2018-02-19T05:52:28.261Z,101716.84
2018-02-19T05:54:56.634Z,101725.80
2018-02-19T05:57:24.951Z,101718.14
2018-02-19T05:59:53.309Z,101713.02
2018-02-19T06:02:21.665Z,101715.20
2018-02-19T06:04:50.409Z,101715.34
2018-02-19T06:07:18.887Z,101715.06
2018-02-19T06:09:47.221Z,101715.81
2018-02-19T06:12:15.554Z,101718.80
2018-02-19T06:14:43.908Z,101710.00
2018-02-19T06:17:12.259Z,101714.25
2018-02-19T06:19:40.617Z,101702.16
2018-02-19T06:22:08.992Z,101700.97
2018-02-19T06:24:37.328Z,101699.36
2018-02-19T06:27:05.658Z,101699.88
2018-02-19T06:29:34.407Z,101701.06
2018-02-19T06:32:02.784Z,101696.48
2018-02-19T06:34:31.099Z,101698.36
2018-02-19T06:36:59.476Z,101703.33
2018-02-19T06:39:27.817Z,101695.90
2018-02-19T06:41:56.949Z,101699.50
2018-02-19T06:44:26.436Z,101699.91
2018-02-19T06:46:55.556Z,101697.65
2018-02-19T06:49:24.671Z,101701.11
2018-02-19T06:51:53.044Z,101704.63
2018-02-19T06:54:21.399Z,101701.20
2018-02-19T06:56:50.840Z,101705.52
2018-02-19T06:59:19.212Z,101708.25
2018-02-19T07:01:47.519Z,101706.27
2018-02-19T07:04:15.876Z,101701.62
2018-02-19T07:06:44.257Z,101698.67
2018-02-19T07:09:12.591Z,101700.89
2018-02-19T07:11:40.917Z,101695.34
2018-02-19T07:14:09.272Z,101700.07
2018-02-19T07:16:37.609Z,101701.37
2018-02-19T07:19:07.247Z,101699.73
2018-02-19T07:21:35.633Z,101696.44
2018-02-19T07:24:03.956Z,101692.77
2018-02-19T07:26:32.280Z,101692.55
2018-02-19T07:29:00.630Z,101693.02
2018-02-19T07:31:28.987Z,101689.75
2018-02-19T07:33:57.344Z,101689.81
2018-02-19T07:36:26.103Z,101690.45
2018-02-19T07:38:54.426Z,101687.13
2018-02-19T07:41:23.542Z,101686.77
2018-02-19T07:43:51.888Z,101687.92
2018-02-19T07:46:20.240Z,101687.93
2018-02-19T07:48:48.574Z,101690.22
2018-02-19T07:51:17.693Z,101689.18
2018-02-19T07:53:46.031Z,101683.50
2018-02-19T07:56:14.412Z,101682.25
2018-02-19T07:58:43.528Z,101682.17
2018-02-19T08:01:11.880Z,101675.02
2018-02-19T08:03:41.054Z,101678.16
2018-02-19T08:06:09.412Z,101676.25
2018-02-19T08:08:37.784Z,101679.20
2018-02-19T08:11:06.133Z,101678.67
2018-02-19T08:13:34.442Z,101676.34
2018-02-19T08:16:02.790Z,101673.00
2018-02-19T08:18:31.098Z,101672.92
2018-02-19T08:20:59.444Z,101664.77
2018-02-19T08:23:27.752Z,101670.18
2018-02-19T08:25:56.091Z,101665.48
2018-02-19T08:28:25.238Z,101661.30
2018-02-19T08:30:53.551Z,101656.13
2018-02-19T08:33:22.303Z,101651.48
2018-02-19T08:35:50.644Z,101658.75
2018-02-19T08:38:19.446Z,101659.94
2018-02-19T08:40:47.794Z,101660.14
2018-02-19T08:43:16.534Z,101656.78
2018-02-19T08:45:45.244Z,101655.19
2018-02-19T08:48:13.608Z,101653.85
2018-02-19T08:50:41.979Z,101651.87
2018-02-19T08:53:10.345Z,101646.39
2018-02-19T08:55:38.697Z,101649.41
2018-02-19T08:58:07.056Z,101647.30
2018-02-19T09:00:36.144Z,101644.31
2018-02-19T09:03:05.263Z,101639.87
2018-02-19T09:05:33.626Z,101640.82
2018-02-19T09:08:01.912Z,101634.12
2018-02-19T09:10:30.264Z,101632.89
2018-02-19T09:12:59.856Z,101626.97
2018-02-19T09:15:28.220Z,101626.09
2018-02-19T09:17:56.573Z,101627.41
2018-02-19T09:20:24.924Z,101629.83
2018-02-19T09:22:53.290Z,101627.22
2018-02-19T09:25:22.407Z,101625.24
2018-02-19T09:27:50.726Z,101616.23
2018-02-19T09:30:19.079Z,101613.23
2018-02-19T09:32:47.407Z,101605.12
2018-02-19T09:35:16.510Z,101608.05
2018-02-19T09:37:45.635Z,101617.15
2018-02-19T09:40:14.013Z,101618.34
2018-02-19T09:42:42.363Z,101617.19
2018-02-19T09:45:11.447Z,101618.11
2018-02-19T09:47:40.584Z,101619.30
2018-02-19T09:50:08.892Z,101617.69
2018-02-19T09:52:37.283Z,101618.46
2018-02-19T09:55:05.624Z,101615.45
2018-02-19T09:57:33.951Z,101609.59
2018-02-19T10:00:03.032Z,101611.03
2018-02-19T10:02:31.383Z,101603.11
2018-02-19T10:04:59.736Z,101602.16
2018-02-19T10:07:28.047Z,101605.95
2018-02-19T10:09:56.404Z,101601.54
2018-02-19T10:12:24.716Z,101605.52
2018-02-19T10:14:53.077Z,101596.94
2018-02-19T10:17:21.451Z,101589.45
2018-02-19T10:19:49.779Z,101592.33
2018-02-19T10:22:18.119Z,101592.33
2018-02-19T10:24:46.424Z,101585.56
2018-02-19T10:27:14.785Z,101577.78
2018-02-19T10:29:43.126Z,101581.06
2018-02-19T10:32:12.211Z,101575.80
2018-02-19T10:34:40.570Z,101575.76
2018-02-19T10:37:08.935Z,101572.52
2018-02-19T10:39:38.106Z,101567.03
2018-02-19T10:42:06.401Z,101556.11
2018-02-19T10:44:35.516Z,101562.88
2018-02-19T10:47:03.830Z,101555.77
2018-02-19T10:49:32.187Z,101552.84
2018-02-19T10:52:00.546Z,101552.98
2018-02-19T10:54:28.891Z,101545.30
2018-02-19T10:56:57.247Z,101546.96
2018-02-19T10:59:25.556Z,101545.95
2018-02-19T11:01:53.895Z,101542.42
2018-02-19T11:04:22.211Z,101537.11
2018-02-19T11:06:51.326Z,101536.15
2018-02-19T11:09:19.682Z,101533.41
2018-02-19T11:11:48.782Z,101531.69
2018-02-19T11:14:17.889Z,101526.68
2018-02-19T11:16:46.265Z,101525.02
2018-02-19T11:19:15.355Z,101518.67
2018-02-19T11:21:44.487Z,101513.36
2018-02-19T11:24:12.841Z,101511.41
2018-02-19T11:26:41.915Z,101502.67
2018-02-19T11:29:11.039Z,101496.88
2018-02-19T11:31:39.385Z,101508.03
2018-02-19T11:34:07.707Z,101509.41
2018-02-19T11:36:36.007Z,101504.20
2018-02-19T11:39:04.357Z,101501.37
2018-02-19T11:41:32.675Z,101497.20
2018-02-19T11:44:01.070Z,101494.68
2018-02-19T11:46:29.376Z,101487.80
2018-02-19T11:48:57.702Z,101483.11
2018-02-19T11:51:26.055Z,101478.25
2018-02-19T11:53:54.414Z,101477.46
2018-02-19T11:56:22.782Z,101473.13
2018-02-19T11:58:51.092Z,101472.73
2018-02-19T12:01:19.423Z,101470.54
2018-02-19T12:03:48.594Z,101469.64
2018-02-19T12:06:16.914Z,101460.80
2018-02-19T12:08:45.332Z,101463.80
2018-02-19T12:11:13.618Z,101461.04
2018-02-19T12:13:41.974Z,101463.70
2018-02-19T12:16:10.311Z,101454.16
2018-02-19T12:18:39.465Z,101455.94
2018-02-19T12:21:07.813Z,101455.45
2018-02-19T12:23:36.149Z,101450.53
2018-02-19T12:26:05.266Z,101453.61
2018-02-19T12:28:33.582Z,101451.41
2018-02-19T12:31:01.956Z,101450.14
2018-02-19T12:33:30.282Z,101440.13
2018-02-19T12:35:59.396Z,101437.19
2018-02-19T12:38:27.716Z,101439.89
2018-02-19T12:40:56.066Z,101435.61
2018-02-19T12:43:24.399Z,101433.45
2018-02-19T12:45:52.765Z,101427.80
2018-02-19T12:48:21.080Z,101423.63
2018-02-19T12:50:49.466Z,101422.36
2018-02-19T12:53:17.775Z,101420.59
2018-02-19T12:55:46.105Z,101420.08
2018-02-19T12:58:15.298Z,101416.20
2018-02-19T13:00:44.384Z,101408.89
2018-02-19T13:03:13.503Z,101408.52
2018-02-19T13:05:42.465Z,101403.63
2018-02-19T13:08:10.820Z,101404.34
2018-02-19T13:10:39.145Z,101404.34
2018-02-19T13:13:07.494Z,101404.11
2018-02-19T13:15:35.812Z,101405.34
2018-02-19T13:18:04.174Z,101408.48
2018-02-19T13:20:32.488Z,101401.19
2018-02-19T13:23:00.836Z,101400.85
2018-02-19T13:25:29.186Z,101397.89
2018-02-19T13:27:58.322Z,101396.14
2018-02-19T13:30:26.682Z,101393.52
2018-02-19T13:32:55.000Z,101394.39
2018-02-19T13:35:23.444Z,101387.48
2018-02-19T13:37:51.775Z,101385.38
2018-02-19T13:40:20.138Z,101385.38
2018-02-19T13:42:48.516Z,101385.02
2018-02-19T13:45:16.842Z,101388.14
2018-02-19T13:47:45.972Z,101390.84
2018-02-19T13:50:14.328Z,101384.73
2018-02-19T13:52:42.690Z,101379.50
2018-02-19T13:55:11.780Z,101381.68
2018-02-19T13:57:40.173Z,101375.86
2018-02-19T14:00:09.242Z,101382.00
2018-02-19T14:02:37.547Z,101374.92
2018-02-19T14:05:07.542Z,101376.63
2018-02-19T14:07:35.852Z,101379.50
2018-02-19T14:10:04.448Z,101378.88
2018-02-19T14:12:33.198Z,101374.12
2018-02-19T14:15:01.907Z,101369.80
2018-02-19T14:17:30.225Z,101370.68
2018-02-19T14:19:58.617Z,101367.33
2018-02-19T14:22:26.987Z,101366.60
2018-02-19T14:24:55.715Z,101359.09
2018-02-19T14:27:25.956Z,101360.30
2018-02-19T14:29:54.285Z,101341.52
2018-02-19T14:32:22.616Z,101357.41
2018-02-19T14:34:51.192Z,101349.13
2018-02-19T14:37:19.516Z,101352.27
2018-02-19T14:39:47.868Z,101351.38
2018-02-19T14:42:16.177Z,101355.68
2018-02-19T14:44:44.533Z,101346.19
2018-02-19T14:47:12.853Z,101345.80
2018-02-19T14:49:41.999Z,101354.52
2018-02-19T14:52:10.362Z,101345.67
2018-02-19T14:54:41.322Z,101351.68
2018-02-19T14:57:10.484Z,101346.89
2018-02-19T14:59:39.683Z,101349.54
2018-02-19T15:02:08.009Z,101352.23
2018-02-19T15:04:36.488Z,101360.14
2018-02-19T15:07:04.820Z,101346.63
2018-02-19T15:09:33.161Z,101349.56
2018-02-19T15:12:02.310Z,101348.30
2018-02-19T15:14:30.687Z,101350.33
2018-02-19T15:16:59.044Z,101347.05
2018-02-19T15:19:28.284Z,101348.16
2018-02-19T15:21:56.674Z,101347.23
2018-02-19T15:24:25.040Z,101341.55
2018-02-19T15:26:53.393Z,101334.95
2018-02-19T15:29:21.760Z,101337.12
2018-02-19T15:31:50.136Z,101337.85
2018-02-19T15:34:18.523Z,101340.38
2018-02-19T15:36:46.896Z,101341.89
2018-02-19T15:39:15.210Z,101337.57
2018-02-19T15:41:43.519Z,101334.81
2018-02-19T15:44:12.649Z,101333.53
2018-02-19T15:46:40.988Z,101335.04
2018-02-19T15:49:10.124Z,101336.64
2018-02-19T15:51:39.103Z,101338.23
2018-02-19T15:54:07.497Z,101336.26
2018-02-19T15:56:35.872Z,101336.08
2018-02-19T15:59:04.190Z,101331.94
2018-02-19T16:01:32.552Z,101333.56
2018-02-19T16:04:00.856Z,101325.95
2018-02-19T16:06:30.812Z,101322.66
2018-02-19T16:08:59.444Z,101320.79
2018-02-19T16:11:27.788Z,101311.41
2018-02-19T16:13:56.145Z,101312.66
2018-02-19T16:16:24.527Z,101317.03
2018-02-19T16:18:52.879Z,101316.53
2018-02-19T16:21:22.372Z,101321.20
2018-02-19T16:23:51.514Z,101325.75
2018-02-19T16:26:19.818Z,101321.58
2018-02-19T16:28:48.121Z,101314.84
2018-02-19T16:31:17.265Z,101314.14
2018-02-19T16:33:46.271Z,101315.47
2018-02-19T16:36:15.385Z,101309.72
2018-02-19T16:38:45.254Z,101314.40
2018-02-19T16:41:13.660Z,101310.41
2018-02-19T16:43:42.034Z,101316.46
2018-02-19T16:46:10.379Z,101312.77
2018-02-19T16:48:38.737Z,101314.39
2018-02-19T16:51:07.079Z,101317.70
2018-02-19T16:53:35.436Z,101314.08
2018-02-19T16:56:04.537Z,101324.44
2018-02-19T16:58:32.916Z,101327.84
2018-02-19T17:01:01.397Z,101322.91
2018-02-19T17:03:29.775Z,101321.83
2018-02-19T17:05:58.170Z,101328.58
2018-02-19T17:08:26.956Z,101324.17
2018-02-19T17:10:55.323Z,101317.58
2018-02-19T17:13:23.652Z,101316.97
2018-02-19T17:15:53.341Z,101316.91
2018-02-19T17:18:22.864Z,101312.25
2018-02-19T17:20:52.607Z,101317.92
2018-02-19T17:23:20.969Z,101321.37
2018-02-19T17:25:49.303Z,101322.48
2018-02-19T17:28:17.787Z,101320.52
2018-02-19T17:30:46.091Z,101315.07
2018-02-19T17:33:15.222Z,101306.73
2018-02-19T17:35:43.541Z,101304.69
2018-02-19T17:38:12.731Z,101298.31
2018-02-19T17:40:41.046Z,101303.89
2018-02-19T17:43:10.529Z,101302.38
2018-02-19T17:45:39.656Z,101301.28
2018-02-19T17:48:07.980Z,101297.69
2018-02-19T17:50:37.738Z,101298.98
2018-02-19T17:53:06.106Z,101297.30
2018-02-19T17:55:36.376Z,101298.16
2018-02-19T17:58:04.708Z,101307.66
2018-02-19T18:00:33.952Z,101302.33
2018-02-19T18:03:02.292Z,101300.25
2018-02-19T18:05:31.629Z,101305.52
2018-02-19T18:08:00.634Z,101310.30
2018-02-19T18:10:29.012Z,101313.38
2018-02-19T18:12:57.728Z,101307.44
2018-02-19T18:15:27.507Z,101311.31
2018-02-19T18:17:55.879Z,101312.67
2018-02-19T18:20:24.253Z,101309.20
2018-02-19T18:22:52.613Z,101305.19
2018-02-19T18:25:20.981Z,101304.81
2018-02-19T18:27:49.347Z,101300.50
2018-02-19T18:30:17.678Z,101299.41
2018-02-19T18:32:46.040Z,101305.70
2018-02-19T18:35:14.455Z,101302.13
2018-02-19T18:37:42.920Z,101305.94
2018-02-19T18:40:11.251Z,101304.27
2018-02-19T18:42:39.561Z,101301.98
2018-02-19T18:45:07.991Z,101306.61
2018-02-19T18:47:37.225Z,101302.70
2018-02-19T18:50:06.491Z,101307.73
2018-02-19T18:52:35.087Z,101309.66
2018-02-19T18:55:03.417Z,101312.03
2018-02-19T18:57:32.485Z,101311.64
2018-02-19T19:00:01.738Z,101305.59
2018-02-19T19:02:30.728Z,101307.36
2018-02-19T19:04:59.058Z,101307.66
2018-02-19T19:07:45.363Z,101312.75
2018-02-19T19:10:31.203Z,101314.35
2018-02-19T19:13:00.095Z,101310.28
2018-02-19T19:15:28.431Z,101318.53
2018-02-19T19:17:56.837Z,101314.13
2018-02-19T19:20:26.050Z,101314.35
2018-02-19T19:22:54.392Z,101310.86
2018-02-19T19:25:23.512Z,101307.30
2018-02-19T19:27:52.426Z,101305.51
2018-02-19T19:30:20.820Z,101301.64
2018-02-19T19:32:50.127Z,101301.34
2018-02-19T19:35:18.607Z,101303.92
2018-02-19T19:37:48.284Z,101300.58
2018-02-19T19:40:17.456Z,101298.81
2018-02-19T19:42:47.032Z,101299.08
2018-02-19T19:45:15.375Z,101303.34
2018-02-19T19:47:45.261Z,101300.22
2018-02-19T19:50:14.487Z,101298.36
2018-02-19T19:52:43.141Z,101306.00
2018-02-19T19:55:11.494Z,101301.94
2018-02-19T19:57:40.715Z,101298.98
2018-02-19T20:00:12.368Z,101296.66
2018-02-19T20:02:42.678Z,101299.31
2018-02-19T20:05:11.121Z,101298.42
2018-02-19T20:07:39.444Z,101304.30
2018-02-19T20:10:08.658Z,101303.66
2018-02-19T20:12:37.032Z,101301.84
2018-02-19T20:15:07.101Z,101298.14
2018-02-19T20:17:35.426Z,101306.53
2018-02-19T20:20:03.806Z,101304.31
2018-02-19T20:22:32.921Z,101303.82
2018-02-19T20:25:01.415Z,101301.73
2018-02-19T20:27:29.768Z,101300.28
2018-02-19T20:29:59.153Z,101298.06
2018-02-19T20:32:28.791Z,101293.20
2018-02-19T20:35:03.486Z,101299.09
2018-02-19T20:37:33.249Z,101293.95
2018-02-19T20:40:01.582Z,101292.91
2018-02-19T20:42:30.532Z,101297.56
2018-02-19T20:45:00.591Z,101292.88
2018-02-19T20:47:29.438Z,101284.33
2018-02-19T20:49:58.616Z,101281.16
2018-02-19T20:52:27.794Z,101281.66
2018-02-19T20:54:57.691Z,101282.98
2018-02-19T20:57:26.609Z,101282.34
2018-02-19T20:59:55.069Z,101277.24
2018-02-19T21:02:24.962Z,101274.75
2018-02-19T21:04:54.818Z,101263.72
2018-02-19T21:07:23.168Z,101267.28
2018-02-19T21:09:51.517Z,101268.72
2018-02-19T21:12:22.055Z,101268.94
2018-02-19T21:14:51.225Z,101268.45
2018-02-19T21:17:19.580Z,101268.36
2018-02-19T21:19:48.912Z,101264.83
2018-02-19T21:22:17.281Z,101264.33
2018-02-19T21:24:46.014Z,101262.27
2018-02-19T21:27:14.497Z,101265.16
2018-02-19T21:29:44.060Z,101260.62
2018-02-19T21:32:13.132Z,101248.05
2018-02-19T21:34:41.465Z,101254.55
2018-02-19T21:37:10.588Z,101255.63
2018-02-19T21:39:38.982Z,101257.15
2018-02-19T21:42:07.310Z,101252.45
2018-02-19T21:44:36.430Z,101254.97
2018-02-19T21:47:04.817Z,101253.75
2018-02-19T21:49:33.165Z,101252.73
2018-02-19T21:52:01.590Z,101250.52
2018-02-19T21:54:30.384Z,101254.20
2018-02-19T21:56:58.751Z,101256.52
2018-02-19T21:59:27.500Z,101242.30
2018-02-19T22:01:55.846Z,101256.23
2018-02-19T22:04:24.616Z,101259.28
2018-02-19T22:06:53.034Z,101258.70
2018-02-19T22:09:22.200Z,101265.20
2018-02-19T22:11:50.533Z,101260.48
2018-02-19T22:14:18.898Z,101257.35
2018-02-19T22:16:47.235Z,101257.48
2018-02-19T22:19:15.592Z,101257.46
2018-02-19T22:21:43.933Z,101251.09
2018-02-19T22:24:13.440Z,101248.50
2018-02-19T22:26:41.777Z,101250.37
2018-02-19T22:29:11.884Z,101252.12
2018-02-19T22:31:40.652Z,101249.06
2018-02-19T22:34:09.022Z,101252.22
2018-02-19T22:36:37.383Z,101249.56
2018-02-19T22:39:05.745Z,101255.95
2018-02-19T22:41:34.125Z,101254.06
2018-02-19T22:44:03.251Z,101248.72
2018-02-19T22:46:31.618Z,101247.11
2018-02-19T22:48:59.947Z,101250.53
2018-02-19T22:51:29.081Z,101258.53
2018-02-19T22:53:57.428Z,101257.86
2018-02-19T22:56:27.496Z,101259.87
2018-02-19T22:58:57.021Z,101260.19
2018-02-19T23:01:25.416Z,101261.66
2018-02-19T23:03:53.741Z,101252.51
2018-02-19T23:06:22.895Z,101258.50
2018-02-19T23:08:51.225Z,101252.00
2018-02-19T23:11:19.633Z,101255.87
2018-02-19T23:13:48.014Z,101253.74
2018-02-19T23:16:16.357Z,101254.57
2018-02-19T23:18:45.521Z,101251.09
2018-02-19T23:21:14.661Z,101248.19
2018-02-19T23:23:43.433Z,101242.05
2018-02-19T23:26:12.570Z,101243.78
2018-02-19T23:28:40.911Z,101238.33
2018-02-19T23:31:09.285Z,101237.45
2018-02-19T23:33:37.611Z,101237.60
2018-02-19T23:36:05.977Z,101233.50
2018-02-19T23:38:34.312Z,101233.62
2018-02-19T23:41:02.678Z,101230.02
2018-02-19T23:43:31.904Z,101234.11
2018-02-19T23:46:00.616Z,101231.58
2018-02-19T23:48:29.360Z,101229.69
2018-02-19T23:50:57.729Z,101224.64
2018-02-19T23:53:26.874Z,101226.27
2018-02-19T23:55:56.267Z,101228.80
2018-02-19T23:58:24.637Z,101234.00
